Time;durP1;ratioP1;P1;durP2;ratioP2;P2;SDS_P1;SDS_P2;PMS_P1;PMS_P2;Temp;Humidity;BMP_temperature;BMP_pressure;BME280_temperature;BME280_humidity;BME280_pressure;Samples;Min_cycle;Max_cycle;Signal;HPM_P1;HPM_P2
2023/04/15 00:01:48;;;;;;;6.07;1.30;;;26.00;99.90;;;;;;5092867;28;20171;-70
2023/04/15 00:04:16;;;;;;;6.53;1.53;;;26.40;99.90;;;;;;5092723;28;20248;-69
2023/04/15 00:06:49;;;;;;;5.33;1.37;;;26.20;99.90;;;;;;5092725;28;20184;-68
2023/04/15 00:09:16;;;;;;;5.13;1.40;;;25.80;99.90;;;;;;5092400;28;20183;-70
2023/04/15 00:11:44;;;;;;;8.07;1.20;;;26.30;99.90;;;;;;5096470;28;20236;-69
2023/04/15 00:14:12;;;;;;;3.60;1.20;;;26.30;99.90;;;;;;5096546;28;20183;-69
2023/04/15 00:16:40;;;;;;;5.00;1.23;;;26.90;99.90;;;;;;5096155;28;20176;-70
2023/04/15 00:19:07;;;;;;;2.80;0.83;;;26.90;99.90;;;;;;5096207;28;20231;-69
2023/04/15 00:21:35;;;;;;;4.77;0.97;;;26.90;99.90;;;;;;5096081;28;20266;-68
2023/04/15 00:24:02;;;;;;;4.43;1.00;;;26.60;99.90;;;;;;5096334;28;20168;-69
2023/04/15 00:26:30;;;;;;;2.23;1.20;;;26.90;99.90;;;;;;5096196;28;20171;-69
2023/04/15 00:28:57;;;;;;;5.37;1.20;;;26.60;99.90;;;;;;5096234;28;20258;-70
2023/04/15 00:31:24;;;;;;;2.57;1.00;;;26.80;99.90;;;;;;5096122;28;20198;-68
2023/04/15 00:33:52;;;;;;;6.20;1.30;;;26.50;99.90;;;;;;5096150;28;20638;-70
2023/04/15 00:36:19;;;;;;;3.87;1.27;;;26.40;99.90;;;;;;5095922;28;20179;-69
2023/04/15 00:38:46;;;;;;;3.87;0.90;;;26.50;99.90;;;;;;5095793;28;20206;-68
2023/04/15 00:41:14;;;;;;;3.00;1.00;;;27.10;99.90;;;;;;5095731;28;20585;-69
2023/04/15 00:43:42;;;;;;;6.53;1.43;;;26.70;99.90;;;;;;5096056;28;20661;-70
2023/04/15 00:46:12;;;;;;;5.10;1.70;;;26.50;99.90;;;;;;5095870;28;20689;-70
2023/04/15 00:48:40;;;;;;;3.13;0.93;;;26.90;99.90;;;;;;5095645;28;20262;-68
2023/04/15 00:51:08;;;;;;;2.17;0.70;;;27.20;99.90;;;;;;5095659;28;20167;-70
2023/04/15 00:53:35;;;;;;;3.90;1.27;;;27.60;99.90;;;;;;5095689;28;20540;-69
2023/04/15 00:56:03;;;;;;;3.83;1.13;;;27.50;99.90;;;;;;5095534;28;20258;-69
2023/04/15 00:58:30;;;;;;;5.67;1.30;;;27.40;99.90;;;;;;5095660;28;20286;-69
2023/04/15 01:00:59;;;;;;;2.53;1.00;;;27.50;99.90;;;;;;5095471;28;20167;-69
2023/04/15 01:03:27;;;;;;;4.07;0.73;;;27.60;99.90;;;;;;5095578;28;20277;-69
2023/04/15 01:05:57;;;;;;;4.77;0.97;;;27.50;99.90;;;;;;5095240;28;20174;-69
2023/04/15 01:08:31;;;;;;;2.93;1.17;;;27.10;99.90;;;;;;5095353;28;20221;-69
2023/04/15 01:11:02;;;;;;;2.53;0.90;;;26.40;99.90;;;;;;5095212;28;20262;-69
2023/04/15 01:13:30;;;;;;;2.50;0.80;;;26.70;99.90;;;;;;5095242;28;20182;-68
2023/04/15 01:15:57;;;;;;;4.70;0.90;;;27.20;99.90;;;;;;5095081;28;20202;-69
2023/04/15 01:18:25;;;;;;;2.13;0.90;;;27.10;99.90;;;;;;5095173;28;20210;-68
2023/04/15 01:20:52;;;;;;;5.43;0.93;;;28.20;99.90;;;;;;5095117;28;20705;-69
2023/04/15 01:23:22;;;;;;;2.83;1.03;;;28.40;99.90;;;;;;5094437;28;20171;-69
2023/04/15 01:25:51;;;;;;;1.33;0.70;;;28.10;99.90;;;;;;5094938;28;20232;-69
2023/04/15 01:28:19;;;;;;;4.33;0.70;;;28.10;99.90;;;;;;5094789;28;20179;-69
2023/04/15 01:30:46;;;;;;;4.13;0.70;;;27.40;99.90;;;;;;5094826;28;20175;-70
2023/04/15 01:33:14;;;;;;;3.30;0.97;;;27.00;99.90;;;;;;5094829;28;20179;-68
2023/04/15 01:35:43;;;;;;;2.27;0.60;;;27.80;99.90;;;;;;5094956;28;20202;-68
2023/04/15 01:38:12;;;;;;;2.97;0.80;;;27.50;99.90;;;;;;5094579;28;20286;-68
2023/04/15 01:40:39;;;;;;;1.77;1.00;;;27.70;99.90;;;;;;5095238;28;20630;-70
2023/04/15 01:43:07;;;;;;;2.77;0.73;;;29.00;99.90;;;;;;5094630;28;20178;-69
2023/04/15 01:45:34;;;;;;;3.73;0.83;;;27.70;99.90;;;;;;5094662;28;20171;-68
2023/04/15 01:48:01;;;;;;;4.10;0.50;;;27.80;99.90;;;;;;5094475;28;20168;-69
2023/04/15 01:50:29;;;;;;;4.37;0.80;;;26.80;99.90;;;;;;5094719;28;20650;-68
2023/04/15 01:52:56;;;;;;;1.57;0.60;;;27.70;99.90;;;;;;5094542;28;20171;-69
2023/04/15 01:55:23;;;;;;;6.50;1.30;;;28.90;99.90;;;;;;5094217;28;20187;-70
2023/04/15 01:57:51;;;;;;;4.75;1.05;;;29.30;99.90;;;;;;5094467;28;20206;-69
2023/04/15 02:00:18;;;;;;;4.97;1.27;;;29.10;99.90;;;;;;5094397;28;20585;-70
2023/04/15 02:02:46;;;;;;;3.97;0.80;;;29.10;99.90;;;;;;5094371;28;20646;-69
2023/04/15 02:05:13;;;;;;;2.67;1.33;;;28.40;99.90;;;;;;5093043;28;20361;-70
2023/04/15 02:07:42;;;;;;;6.27;1.30;;;28.50;99.90;;;;;;5093992;28;20175;-69
2023/04/15 02:10:11;;;;;;;2.53;0.90;;;28.30;99.90;;;;;;5094184;28;20670;-69
2023/04/15 02:12:39;;;;;;;3.17;1.00;;;28.80;99.90;;;;;;5093920;28;20680;-70
2023/04/15 02:15:07;;;;;;;1.10;0.73;;;29.30;99.90;;;;;;5094010;28;20576;-70
2023/04/15 02:20:57;;;;;;;3.60;1.27;;;29.60;99.90;;;;;;5092895;28;20755;-70
2023/04/15 02:23:25;;;;;;;3.40;0.90;;;29.30;99.90;;;;;;5092693;28;20236;-70
2023/04/15 02:25:52;;;;;;;6.80;0.93;;;29.30;99.90;;;;;;5093917;28;20206;-70
2023/04/15 02:28:19;;;;;;;1.77;0.70;;;29.60;99.90;;;;;;5094079;28;20179;-71
2023/04/15 02:30:52;;;;;;;2.53;0.73;;;29.60;99.90;;;;;;5093842;28;20175;-69
2023/04/15 02:33:20;;;;;;;2.00;0.53;;;29.60;99.90;;;;;;5093142;28;20172;-69
2023/04/15 02:35:48;;;;;;;4.83;1.07;;;29.60;99.90;;;;;;5093574;28;20244;-69
2023/04/15 02:38:16;;;;;;;1.57;0.70;;;29.50;99.90;;;;;;5093558;28;20206;-70
2023/04/15 02:40:44;;;;;;;2.90;0.67;;;29.80;99.90;;;;;;5093792;28;20537;-70
2023/04/15 02:43:11;;;;;;;2.53;0.80;;;29.90;99.90;;;;;;5093488;28;20198;-71
2023/04/15 02:45:39;;;;;;;4.17;1.00;;;29.60;99.90;;;;;;5093649;28;20174;-71
2023/04/15 02:48:06;;;;;;;7.20;0.80;;;30.10;99.90;;;;;;5093583;28;20175;-70
2023/04/15 02:50:34;;;;;;;6.67;0.83;;;29.80;99.90;;;;;;5093612;28;20649;-69
2023/04/15 02:53:01;;;;;;;4.17;1.13;;;30.00;99.30;;;;;;5093420;28;20176;-70
2023/04/15 02:55:29;;;;;;;5.55;0.82;;;30.00;99.90;;;;;;5093346;28;20246;-70
2023/04/15 02:58:00;;;;;;;4.43;1.00;;;30.00;99.90;;;;;;5093277;28;20214;-70
2023/04/15 03:00:27;;;;;;;3.23;1.20;;;29.70;99.90;;;;;;5093396;28;20223;-70
2023/04/15 03:03:01;;;;;;;5.53;1.10;;;29.70;99.90;;;;;;5093700;28;20183;-69
2023/04/15 03:05:28;;;;;;;2.73;1.03;;;29.80;99.90;;;;;;5093309;28;20180;-70
2023/04/15 03:07:56;;;;;;;5.60;1.10;;;30.00;99.90;;;;;;5093418;28;20271;-70
2023/04/15 03:10:23;;;;;;;2.13;0.90;;;29.90;99.90;;;;;;5093505;28;20268;-70
2023/04/15 03:12:50;;;;;;;2.43;0.70;;;30.10;99.90;;;;;;5093451;28;20171;-70
2023/04/15 03:15:18;;;;;;;2.20;0.77;;;30.50;99.90;;;;;;5092984;28;20179;-70
2023/04/15 03:17:46;;;;;;;4.20;1.07;;;30.50;99.90;;;;;;5093205;28;20270;-70
2023/04/15 03:20:14;;;;;;;4.20;1.00;;;30.20;99.90;;;;;;5091487;28;20234;-70
2023/04/15 03:22:41;;;;;;;2.73;1.17;;;30.20;97.50;;;;;;5093162;28;20183;-69
2023/04/15 03:25:09;;;;;;;2.23;0.80;;;30.10;93.20;;;;;;5092925;28;20183;-70
2023/04/15 03:27:37;;;;;;;3.93;0.80;;;29.90;92.70;;;;;;5093089;28;20179;-69
2023/04/15 03:30:06;;;;;;;0.90;0.60;;;30.00;93.00;;;;;;5092890;28;20201;-70
2023/04/15 03:32:34;;;;;;;2.83;0.80;;;30.20;92.90;;;;;;5093214;28;20713;-71
2023/04/15 03:35:01;;;;;;;3.87;1.27;;;30.20;94.90;;;;;;5092961;28;20681;-70
2023/04/15 03:37:29;;;;;;;2.97;1.00;;;30.20;94.70;;;;;;5091661;28;20611;-71
2023/04/15 03:39:56;;;;;;;2.67;0.80;;;30.10;91.60;;;;;;5092794;28;20275;-70
2023/04/15 03:42:24;;;;;;;2.70;0.80;;;29.80;89.70;;;;;;5092887;28;20179;-71
2023/04/15 03:44:51;;;;;;;1.57;0.50;;;29.30;87.60;;;;;;5093324;28;20218;-70
2023/04/15 03:47:19;;;;;;;3.80;0.70;;;29.50;77.30;;;;;;5096980;28;20220;-70
2023/04/15 03:49:46;;;;;;;0.97;0.60;;;29.30;78.30;;;;;;5096953;28;20171;-70
2023/04/15 03:52:14;;;;;;;2.97;0.88;;;28.90;85.30;;;;;;5096832;28;20182;-71
2023/04/15 03:54:41;;;;;;;2.13;1.00;;;29.00;85.90;;;;;;5095670;28;20677;-71
2023/04/15 03:57:08;;;;;;;3.43;0.70;;;28.90;84.70;;;;;;5096834;28;20179;-71
2023/04/15 03:59:36;;;;;;;2.27;1.20;;;28.30;92.30;;;;;;5096633;28;20581;-71
2023/04/15 04:02:03;;;;;;;5.33;0.80;;;28.50;93.60;;;;;;5096662;28;20179;-70
2023/04/15 04:04:31;;;;;;;4.03;0.80;;;28.30;94.50;;;;;;5096464;28;20262;-69
2023/04/15 04:06:58;;;;;;;2.30;0.97;;;27.90;96.00;;;;;;5096614;28;20175;-70
2023/04/15 04:09:26;;;;;;;2.73;0.83;;;27.90;96.90;;;;;;5096564;28;20180;-69
2023/04/15 04:11:55;;;;;;;3.53;0.50;;;28.20;93.10;;;;;;5096209;28;20185;-70
2023/04/15 04:14:28;;;;;;;2.93;0.70;;;28.40;91.90;;;;;;5096500;28;20175;-70
2023/04/15 04:16:56;;;;;;;2.17;0.90;;;28.50;94.50;;;;;;5096069;28;20252;-69
2023/04/15 04:19:23;;;;;;;1.40;0.70;;;28.90;86.60;;;;;;5096201;28;20578;-70
2023/04/15 04:21:51;;;;;;;2.30;0.60;;;29.20;87.40;;;;;;5095810;28;20229;-70
2023/04/15 04:24:18;;;;;;;0.70;0.47;;;29.30;76.30;;;;;;5096052;28;20266;-70
2023/04/15 04:26:46;;;;;;;3.03;0.93;;;29.10;77.30;;;;;;5095874;28;20179;-69
2023/04/15 04:29:13;;;;;;;3.20;0.93;;;28.90;82.20;;;;;;5096101;28;20176;-70
2023/04/15 04:31:40;;;;;;;2.73;0.73;;;28.90;90.10;;;;;;5096058;28;20172;-71
2023/04/15 04:34:08;;;;;;;2.13;0.67;;;28.60;86.30;;;;;;5095914;28;20207;-71
2023/04/15 04:36:35;;;;;;;1.80;0.70;;;28.40;82.40;;;;;;5096081;28;20229;-71
2023/04/15 04:39:03;;;;;;;2.23;0.73;;;28.20;81.60;;;;;;5095871;28;20207;-70
2023/04/15 04:41:31;;;;;;;2.67;0.70;;;28.20;85.20;;;;;;5095629;28;20259;-70
2023/04/15 04:43:58;;;;;;;1.33;0.70;;;28.30;81.70;;;;;;5095863;28;20179;-71
2023/04/15 04:46:26;;;;;;;1.93;0.87;;;28.40;89.00;;;;;;5095908;28;20588;-71
2023/04/15 04:48:53;;;;;;;2.80;0.80;;;28.80;82.90;;;;;;5095772;28;20217;-71
2023/04/15 04:51:21;;;;;;;1.70;0.50;;;28.90;80.10;;;;;;5095725;28;20171;-69
2023/04/15 04:53:48;;;;;;;4.10;0.83;;;28.50;79.30;;;;;;5095555;28;20194;-70
2023/04/15 04:56:15;;;;;;;1.97;0.70;;;28.70;79.40;;;;;;5094626;28;20176;-70
2023/04/15 04:58:43;;;;;;;1.47;0.67;;;28.60;80.50;;;;;;5095008;28;20203;-70
2023/04/15 05:01:10;;;;;;;1.27;0.80;;;28.50;79.50;;;;;;5095540;28;20182;-70
2023/04/15 05:03:38;;;;;;;1.53;0.73;;;27.90;82.30;;;;;;5095322;28;20176;-70
2023/04/15 05:06:07;;;;;;;1.17;0.40;;;27.80;83.10;;;;;;5095379;28;20253;-71
2023/04/15 05:08:35;;;;;;;3.30;0.67;;;27.80;78.30;;;;;;5095305;28;20308;-71
2023/04/15 05:11:03;;;;;;;1.80;0.50;;;27.80;75.80;;;;;;5095289;28;20190;-70
2023/04/15 05:13:30;;;;;;;5.17;0.93;;;27.70;79.10;;;;;;5095128;28;20183;-70
2023/04/15 05:15:58;;;;;;;2.17;0.90;;;27.60;82.70;;;;;;5095130;28;20171;-70
2023/04/15 05:18:25;;;;;;;1.80;0.70;;;27.20;81.70;;;;;;5094999;28;20218;-69
2023/04/15 05:20:53;;;;;;;0.77;0.47;;;27.20;86.70;;;;;;5094736;28;20219;-69
2023/04/15 05:23:20;;;;;;;2.50;0.80;;;27.20;83.60;;;;;;5095010;28;20167;-70
2023/04/15 05:25:48;;;;;;;2.77;0.50;;;27.10;87.60;;;;;;5094928;28;20609;-69
2023/04/15 05:28:15;;;;;;;2.10;0.60;;;26.90;83.90;;;;;;5094624;28;20218;-70
2023/04/15 05:30:43;;;;;;;1.27;0.47;;;26.70;87.50;;;;;;5094817;28;20182;-70
2023/04/15 05:33:10;;;;;;;2.07;1.03;;;26.80;89.10;;;;;;5095094;28;20649;-70
2023/04/15 05:35:38;;;;;;;1.20;0.80;;;26.90;90.40;;;;;;5094726;28;20555;-69
2023/04/15 05:38:05;;;;;;;5.53;1.13;;;26.90;88.40;;;;;;5094589;28;20206;-70
2023/04/15 05:40:33;;;;;;;2.87;0.80;;;27.10;86.70;;;;;;5094297;28;20554;-69
2023/04/15 05:43:00;;;;;;;3.10;0.60;;;27.10;89.90;;;;;;5094603;28;20217;-70
2023/04/15 05:45:27;;;;;;;3.63;0.80;;;27.10;90.60;;;;;;5094414;28;20179;-69
2023/04/15 05:47:55;;;;;;;2.90;0.70;;;27.10;90.60;;;;;;5094664;28;20172;-69
2023/04/15 05:50:22;;;;;;;2.60;0.70;;;27.10;93.00;;;;;;5094410;28;20171;-70
2023/04/15 05:52:50;;;;;;;2.07;0.70;;;27.00;94.50;;;;;;5094509;28;20325;-70
2023/04/15 05:55:17;;;;;;;1.23;0.60;;;27.00;95.10;;;;;;5094271;28;20167;-68
2023/04/15 05:57:44;;;;;;;6.80;1.17;;;26.70;93.80;;;;;;5094442;28;20183;-69
2023/04/15 06:00:12;;;;;;;2.10;0.57;;;26.80;95.30;;;;;;5094163;28;20183;-69
2023/04/15 06:02:40;;;;;;;2.77;0.53;;;26.80;95.40;;;;;;5094269;28;20171;-69
2023/04/15 06:05:09;;;;;;;1.30;0.70;;;26.90;94.40;;;;;;5094022;28;20187;-71
2023/04/15 06:07:37;;;;;;;2.33;0.90;;;26.70;94.80;;;;;;5094282;28;20178;-69
2023/04/15 06:10:06;;;;;;;2.53;0.80;;;26.70;96.20;;;;;;5094089;28;20214;-69
2023/04/15 06:12:33;;;;;;;1.83;0.50;;;26.40;97.40;;;;;;5094077;28;20211;-70
2023/04/15 06:15:01;;;;;;;1.83;0.60;;;26.20;98.70;;;;;;5093946;28;20179;-70
2023/04/15 06:17:28;;;;;;;3.00;0.90;;;26.00;99.70;;;;;;5094156;28;20547;-68
2023/04/15 06:19:56;;;;;;;1.13;0.60;;;25.70;99.90;;;;;;5093431;28;20214;-68
2023/04/15 06:22:24;;;;;;;2.30;0.77;;;25.50;99.90;;;;;;5093931;28;20179;-70
2023/04/15 06:24:51;;;;;;;1.60;0.70;;;25.30;99.90;;;;;;5093704;28;20627;-69
2023/04/15 06:27:19;;;;;;;3.97;1.07;;;25.20;99.90;;;;;;5093804;28;20229;-70
2023/04/15 06:29:47;;;;;;;2.30;0.80;;;25.10;99.90;;;;;;5093821;28;20175;-68
2023/04/15 06:32:14;;;;;;;2.07;0.70;;;25.10;99.90;;;;;;5093681;28;20179;-68
2023/04/15 06:34:41;;;;;;;2.87;0.70;;;25.10;99.90;;;;;;5093608;28;20184;-69
2023/04/15 06:37:10;;;;;;;1.90;0.60;;;25.00;99.90;;;;;;5093752;28;20171;-69
2023/04/15 06:39:37;;;;;;;2.30;0.87;;;25.00;99.90;;;;;;5093535;28;20242;-69
2023/04/15 06:42:04;;;;;;;1.53;0.90;;;24.90;99.90;;;;;;5093834;28;20170;-69
2023/04/15 06:44:32;;;;;;;1.80;0.80;;;24.80;99.90;;;;;;5093384;28;20180;-69
2023/04/15 06:47:00;;;;;;;3.27;1.00;;;24.70;99.90;;;;;;5093751;28;20182;-69
2023/04/15 06:49:27;;;;;;;3.53;1.00;;;24.60;99.90;;;;;;5093510;28;20182;-68
2023/04/15 06:51:55;;;;;;;1.50;0.80;;;24.60;99.90;;;;;;5094652;28;20201;-69
2023/04/15 06:54:22;;;;;;;1.83;0.90;;;24.50;99.90;;;;;;5093646;28;20562;-69
2023/04/15 06:56:50;;;;;;;1.67;0.70;;;24.50;99.90;;;;;;5093568;28;20174;-70
2023/04/15 06:59:17;;;;;;;1.63;0.80;;;24.40;99.90;;;;;;5093405;28;20321;-68
2023/04/15 07:01:45;;;;;;;1.90;0.80;;;24.40;99.90;;;;;;5093098;28;20292;-69
2023/04/15 07:04:12;;;;;;;1.57;0.40;;;24.40;99.90;;;;;;5093471;28;20171;-70
2023/04/15 07:06:40;;;;;;;0.83;0.67;;;24.50;99.90;;;;;;5093139;28;20173;-70
2023/04/15 07:09:08;;;;;;;2.17;0.50;;;24.50;99.90;;;;;;5093172;28;20309;-69
2023/04/15 07:11:36;;;;;;;1.67;0.80;;;24.40;99.90;;;;;;5093090;28;20183;-69
2023/04/15 07:14:03;;;;;;;0.90;0.70;;;24.40;99.90;;;;;;5092790;28;20179;-70
2023/04/15 07:16:30;;;;;;;3.43;0.93;;;24.40;99.90;;;;;;5092811;28;20175;-70
2023/04/15 07:18:58;;;;;;;1.23;0.80;;;24.20;99.90;;;;;;5092845;28;20625;-70
2023/04/15 07:21:26;;;;;;;1.63;0.90;;;24.20;99.90;;;;;;5091998;28;20219;-70
2023/04/15 07:23:53;;;;;;;3.30;1.60;;;24.20;99.90;;;;;;5093057;28;20202;-71
2023/04/15 07:26:22;;;;;;;2.57;1.10;;;24.20;99.90;;;;;;5092693;28;20174;-70
2023/04/15 07:28:49;;;;;;;1.63;0.80;;;24.10;99.90;;;;;;5092900;28;20599;-70
2023/04/15 07:31:17;;;;;;;3.70;1.17;;;24.10;99.90;;;;;;5092751;28;20167;-69
2023/04/15 07:33:45;;;;;;;3.27;1.30;;;24.00;99.90;;;;;;5092979;28;20213;-70
2023/04/15 07:36:12;;;;;;;2.03;1.00;;;24.00;99.90;;;;;;5092898;28;20175;-72
2023/04/15 07:38:40;;;;;;;3.67;0.93;;;24.00;99.90;;;;;;5092822;28;20198;-69
2023/04/15 07:41:08;;;;;;;2.37;0.80;;;23.80;99.90;;;;;;5092475;28;20179;-69
2023/04/15 07:43:35;;;;;;;2.83;0.97;;;23.80;99.90;;;;;;5092601;28;20171;-70
2023/04/15 07:46:02;;;;;;;2.67;1.00;;;23.80;99.90;;;;;;5092759;28;20634;-69
2023/04/15 07:48:30;;;;;;;1.73;1.00;;;23.80;99.90;;;;;;5092806;28;20178;-69
2023/04/15 07:50:57;;;;;;;3.03;0.77;;;23.80;99.90;;;;;;5092679;28;20179;-70
2023/04/15 07:53:25;;;;;;;4.73;1.07;;;23.70;99.90;;;;;;5092825;28;20178;-70
2023/04/15 07:55:52;;;;;;;3.37;0.80;;;23.70;99.90;;;;;;5092508;28;20181;-69
2023/04/15 07:58:19;;;;;;;1.53;0.83;;;23.70;99.90;;;;;;5092503;28;20256;-70
2023/04/15 08:00:47;;;;;;;2.03;0.87;;;23.70;99.90;;;;;;5093031;28;20186;-71
2023/04/15 08:03:15;;;;;;;2.40;1.10;;;23.60;99.90;;;;;;5092611;28;20179;-70
2023/04/15 08:05:42;;;;;;;2.77;1.30;;;23.60;99.90;;;;;;5092620;28;20234;-70
2023/04/15 08:08:09;;;;;;;3.63;1.10;;;23.60;99.90;;;;;;5092356;28;20172;-69
2023/04/15 08:10:37;;;;;;;3.70;1.30;;;23.60;99.90;;;;;;5092496;28;20178;-70
2023/04/15 08:13:05;;;;;;;3.13;1.00;;;23.50;99.90;;;;;;5092838;28;20337;-70
2023/04/15 08:15:32;;;;;;;3.20;1.23;;;23.50;99.90;;;;;;5092274;28;20277;-70
2023/04/15 08:18:00;;;;;;;3.23;1.23;;;23.30;99.90;;;;;;5092518;28;20179;-70
2023/04/15 08:20:28;;;;;;;3.30;1.10;;;23.20;99.90;;;;;;5092462;28;20313;-68
2023/04/15 08:22:55;;;;;;;1.30;1.10;;;23.10;99.90;;;;;;5092440;28;20170;-71
2023/04/15 08:25:23;;;;;;;2.03;1.20;;;23.10;99.90;;;;;;5092374;28;20708;-69
2023/04/15 08:27:51;;;;;;;3.47;1.40;;;23.10;99.90;;;;;;5092465;28;20254;-71
2023/04/15 08:30:19;;;;;;;2.07;1.40;;;23.10;99.90;;;;;;5092518;28;20270;-69
2023/04/15 08:32:46;;;;;;;2.47;1.33;;;23.10;99.90;;;;;;5095925;28;20247;-70
2023/04/15 08:35:14;;;;;;;2.50;1.33;;;23.00;99.90;;;;;;5094567;28;20286;-69
2023/04/15 08:37:41;;;;;;;4.20;1.60;;;22.90;99.90;;;;;;5095684;28;20206;-70
2023/04/15 08:40:10;;;;;;;5.03;1.37;;;22.90;99.90;;;;;;5095837;28;20171;-69
2023/04/15 08:42:46;;;;;;;3.93;1.27;;;22.80;99.90;;;;;;5096066;28;20622;-69
2023/04/15 08:45:14;;;;;;;2.23;1.10;;;22.70;99.90;;;;;;5096239;28;20170;-69
2023/04/15 08:47:45;;;;;;;3.60;1.27;;;22.60;99.90;;;;;;5096042;28;20637;-70
2023/04/15 08:50:14;;;;;;;4.70;1.63;;;22.60;99.90;;;;;;5096157;28;20212;-69
2023/04/15 08:52:41;;;;;;;3.17;1.37;;;22.60;99.90;;;;;;5095903;28;20168;-69
2023/04/15 08:55:11;;;;;;;5.27;1.60;;;22.60;99.90;;;;;;5095696;28;20184;-70
2023/04/15 08:57:38;;;;;;;4.87;1.50;;;22.70;99.90;;;;;;5095937;28;20206;-70
2023/04/15 09:00:09;;;;;;;2.47;1.10;;;22.70;99.90;;;;;;5095396;28;20215;-70
2023/04/15 09:02:36;;;;;;;5.67;1.40;;;22.60;99.90;;;;;;5095700;28;20639;-70
2023/04/15 09:05:05;;;;;;;3.53;1.70;;;22.60;99.90;;;;;;5094235;28;20210;-69
2023/04/15 09:07:35;;;;;;;3.27;1.77;;;22.60;99.90;;;;;;5095690;28;20171;-70
2023/04/15 09:10:04;;;;;;;3.87;1.50;;;22.60;99.90;;;;;;5095547;28;20178;-69
2023/04/15 09:12:33;;;;;;;2.47;1.07;;;22.50;99.90;;;;;;5095402;28;20180;-70
2023/04/15 09:15:02;;;;;;;2.87;1.43;;;22.50;99.90;;;;;;5095486;28;20176;-70
2023/04/15 09:17:33;;;;;;;4.50;1.47;;;22.40;99.90;;;;;;5095612;28;20622;-69
2023/04/15 09:20:12;;;;;;;6.13;1.50;;;22.30;99.90;;;;;;5095129;28;20737;-69
2023/04/15 09:22:41;;;;;;;2.30;1.30;;;22.30;99.90;;;;;;5095051;28;20546;-69
2023/04/15 09:25:23;;;;;;;5.10;1.30;;;22.30;99.90;;;;;;5095321;28;20178;-70
2023/04/15 09:27:55;;;;;;;2.13;1.20;;;22.30;99.90;;;;;;5095082;28;20206;-69
2023/04/15 09:30:23;;;;;;;2.80;1.30;;;22.30;99.90;;;;;;5095136;28;20176;-70
2023/04/15 09:33:01;;;;;;;2.77;1.40;;;22.20;99.90;;;;;;5093796;28;20639;-69
2023/04/15 09:35:28;;;;;;;3.57;1.57;;;22.30;99.90;;;;;;5094964;28;20180;-69
2023/04/15 09:38:07;;;;;;;2.97;1.47;;;22.30;99.90;;;;;;5094877;28;20223;-70
2023/04/15 09:40:36;;;;;;;3.77;1.40;;;22.30;99.90;;;;;;5094904;28;20521;-69
2023/04/15 09:43:05;;;;;;;3.63;1.50;;;22.30;99.90;;;;;;5094499;28;20232;-70
2023/04/15 09:45:33;;;;;;;2.83;1.50;;;22.20;99.90;;;;;;5094926;28;20179;-69
2023/04/15 09:48:19;;;;;;;3.10;1.50;;;22.00;99.90;;;;;;5094872;28;20171;-70
2023/04/15 09:50:52;;;;;;;5.03;1.67;;;22.20;99.90;;;;;;5095263;28;20178;-69
2023/04/15 09:53:21;;;;;;;4.03;1.60;;;22.20;99.90;;;;;;5094711;28;20166;-70
2023/04/15 09:56:01;;;;;;;3.70;1.20;;;22.30;99.90;;;;;;5094706;28;20171;-69
2023/04/15 09:58:33;;;;;;;4.10;1.60;;;22.30;99.90;;;;;;5093369;28;20551;-70
2023/04/15 10:01:03;;;;;;;3.07;1.40;;;22.30;99.90;;;;;;5094372;28;20590;-70
2023/04/15 10:03:35;;;;;;;4.50;1.50;;;22.30;99.90;;;;;;5094468;28;20179;-69
2023/04/15 10:06:04;;;;;;;2.63;1.27;;;22.40;99.90;;;;;;5094645;28;20543;-69
2023/04/15 10:08:33;;;;;;;1.87;1.17;;;22.30;99.90;;;;;;5094602;28;20229;-69
2023/04/15 10:11:02;;;;;;;4.53;1.20;;;22.20;99.90;;;;;;5094358;28;20193;-69
2023/04/15 10:13:35;;;;;;;6.73;1.50;;;22.20;99.90;;;;;;5094276;28;20256;-71
2023/04/15 10:16:16;;;;;;;3.83;1.47;;;22.10;99.90;;;;;;5094246;28;20175;-69
2023/04/15 10:18:46;;;;;;;3.37;1.20;;;22.20;99.90;;;;;;5094315;28;20206;-71
2023/04/15 10:21:17;;;;;;;4.07;1.33;;;22.10;99.90;;;;;;5093978;28;20223;-69
2023/04/15 10:23:46;;;;;;;6.70;1.43;;;22.20;99.90;;;;;;5094284;28;20284;-68
2023/04/15 10:26:16;;;;;;;4.03;1.90;;;22.10;99.90;;;;;;5094090;28;20207;-69
2023/04/15 10:28:44;;;;;;;2.83;1.20;;;22.10;99.90;;;;;;5094058;28;20171;-70
2023/04/15 10:31:14;;;;;;;2.70;1.30;;;22.20;99.90;;;;;;5094641;28;20175;-70
2023/04/15 10:33:43;;;;;;;3.10;1.33;;;22.20;99.90;;;;;;5094165;28;20706;-70
2023/04/15 10:36:12;;;;;;;2.77;1.43;;;22.10;99.90;;;;;;5093838;28;20175;-70
2023/04/15 10:38:42;;;;;;;2.77;1.63;;;22.10;99.90;;;;;;5093833;28;20217;-70
2023/04/15 10:41:22;;;;;;;4.87;1.43;;;22.00;99.90;;;;;;5093833;28;20182;-69
2023/04/15 10:43:54;;;;;;;2.53;1.10;;;22.00;99.90;;;;;;5093655;28;20209;-70
2023/04/15 10:46:36;;;;;;;2.37;1.43;;;22.00;99.90;;;;;;5093881;28;20630;-69
2023/04/15 10:49:13;;;;;;;3.47;1.27;;;21.90;99.90;;;;;;5093662;28;20171;-70
2023/04/15 10:51:43;;;;;;;4.03;1.20;;;21.70;99.90;;;;;;5093767;28;20191;-69
2023/04/15 10:54:25;;;;;;;4.13;1.30;;;21.60;99.90;;;;;;5093136;28;20171;-70
2023/04/15 10:57:01;;;;;;;4.43;1.37;;;21.50;99.90;;;;;;5093550;28;20257;-69
2023/04/15 10:59:30;;;;;;;2.53;1.20;;;21.50;99.90;;;;;;5093889;28;20579;-70
2023/04/15 11:02:04;;;;;;;1.60;1.00;;;21.40;99.90;;;;;;5093562;28;20254;-70
2023/04/15 11:04:53;;;;;;;2.90;1.03;;;21.40;99.90;;;;;;5093730;28;20176;-70
2023/04/15 11:07:47;;;;;;;3.27;1.40;;;21.30;99.90;;;;;;5093598;28;20172;-69
2023/04/15 11:10:19;;;;;;;4.10;1.23;;;21.30;99.90;;;;;;5093768;28;20657;-69
2023/04/15 11:12:50;;;;;;;4.13;1.30;;;21.20;99.90;;;;;;5093774;28;20699;-70
2023/04/15 11:15:32;;;;;;;2.47;1.40;;;21.10;99.90;;;;;;5093420;28;20167;-70
2023/04/15 11:18:15;;;;;;;5.57;1.50;;;21.00;99.90;;;;;;5093088;28;20649;-69
2023/04/15 11:20:49;;;;;;;3.07;1.50;;;21.00;99.90;;;;;;5092980;28;20238;-69
2023/04/15 11:23:19;;;;;;;2.67;1.43;;;21.10;99.90;;;;;;5093832;28;20171;-70
2023/04/15 11:25:47;;;;;;;7.50;1.57;;;21.30;99.90;;;;;;5091837;28;20194;-69
2023/04/15 11:28:14;;;;;;;7.90;1.77;;;21.40;99.90;;;;;;5093215;28;20190;-68
2023/04/15 11:30:42;;;;;;;5.70;1.50;;;21.40;99.90;;;;;;5093216;28;20220;-69
2023/04/15 11:33:11;;;;;;;3.60;1.60;;;21.30;99.90;;;;;;5093164;28;20183;-68
2023/04/15 11:35:40;;;;;;;5.17;1.57;;;21.30;99.90;;;;;;5092997;28;20179;-69
2023/04/15 11:38:15;;;;;;;4.70;1.70;;;21.30;99.90;;;;;;5092894;28;20187;-68
2023/04/15 11:40:43;;;;;;;5.13;1.60;;;21.30;99.90;;;;;;5093193;28;20183;-68
2023/04/15 11:43:14;;;;;;;6.87;1.90;;;21.30;99.90;;;;;;5093090;28;20211;-68
2023/04/15 11:46:08;;;;;;;9.13;2.13;;;21.30;99.90;;;;;;5092938;28;20270;-68
2023/04/15 11:48:36;;;;;;;7.93;2.10;;;21.30;99.90;;;;;;5093231;28;20243;-68
2023/04/15 11:51:06;;;;;;;5.50;1.73;;;21.40;99.90;;;;;;5093111;28;20297;-68
2023/04/15 11:53:51;;;;;;;8.93;2.10;;;21.40;99.90;;;;;;5092977;28;20611;-68
2023/04/15 11:56:22;;;;;;;10.80;2.07;;;21.40;99.90;;;;;;5092923;28;20203;-68
2023/04/15 11:58:58;;;;;;;6.97;2.40;;;21.40;99.90;;;;;;5092803;28;20211;-68
2023/04/15 12:01:45;;;;;;;8.53;2.03;;;21.50;99.90;;;;;;5092613;28;20182;-68
2023/04/15 12:04:14;;;;;;;6.60;1.50;;;21.50;99.90;;;;;;5092854;28;20190;-69
2023/04/15 12:06:41;;;;;;;6.87;1.83;;;21.40;99.90;;;;;;5094838;28;20197;-69
2023/04/15 12:09:19;;;;;;;4.47;1.67;;;21.40;99.90;;;;;;5096900;28;20175;-68
2023/04/15 12:11:48;;;;;;;4.37;1.73;;;21.30;99.90;;;;;;5096639;28;20175;-68
2023/04/15 12:14:31;;;;;;;5.10;1.60;;;21.30;99.90;;;;;;5096557;28;20258;-68
2023/04/15 12:17:03;;;;;;;3.63;1.47;;;21.20;99.90;;;;;;5096743;28;20199;-68
2023/04/15 12:19:36;;;;;;;6.17;1.93;;;21.20;99.90;;;;;;5096543;28;20214;-68
2023/04/15 12:22:05;;;;;;;4.10;1.80;;;21.20;99.90;;;;;;5096346;28;20342;-68
2023/04/15 12:24:34;;;;;;;10.37;1.60;;;21.20;99.90;;;;;;5096411;28;20174;-68
2023/04/15 12:27:04;;;;;;;5.77;1.83;;;21.20;99.90;;;;;;5096527;28;20179;-68
2023/04/15 12:29:33;;;;;;;9.70;1.97;;;21.10;99.90;;;;;;5096426;28;20183;-68
2023/04/15 12:32:12;;;;;;;3.80;1.47;;;21.10;99.90;;;;;;5096429;28;20252;-68
2023/04/15 12:34:41;;;;;;;7.53;2.00;;;21.00;99.90;;;;;;5096050;28;20630;-68
2023/04/15 12:37:11;;;;;;;4.30;1.60;;;21.00;99.90;;;;;;5096190;28;20233;-68
2023/04/15 12:39:40;;;;;;;6.67;2.17;;;20.90;99.90;;;;;;5096025;28;20214;-68
2023/04/15 12:42:09;;;;;;;4.67;1.50;;;20.90;99.90;;;;;;5096076;28;20266;-69
2023/04/15 12:44:37;;;;;;;3.07;1.90;;;20.80;99.90;;;;;;5096023;28;20263;-68
2023/04/15 12:47:06;;;;;;;6.47;1.87;;;20.70;99.90;;;;;;5096240;28;20201;-68
2023/04/15 12:49:33;;;;;;;5.43;1.53;;;20.80;99.90;;;;;;5096076;28;20250;-68
2023/04/15 12:52:02;;;;;;;5.57;1.67;;;20.80;99.90;;;;;;5096181;28;20172;-68
2023/04/15 12:54:31;;;;;;;4.50;1.70;;;20.70;99.90;;;;;;5096034;28;20229;-68
2023/04/15 12:56:59;;;;;;;9.23;2.37;;;20.70;99.90;;;;;;5095964;28;20183;-68
2023/04/15 12:59:27;;;;;;;4.77;1.20;;;20.70;99.90;;;;;;5095840;28;20207;-69
2023/04/15 13:01:55;;;;;;;6.87;1.50;;;20.70;99.90;;;;;;5095735;28;20182;-68